Time;durP1;ratioP1;P1;durP2;ratioP2;P2;SDS_P1;SDS_P2;PMS_P1;PMS_P2;Temp;Humidity;BMP_temperature;BMP_pressure;BME280_temperature;BME280_humidity;BME280_pressure;Samples;Min_cycle;Max_cycle;Signal;HPM_P1;HPM_P2
2022/03/02 00:01:45;;;;;;;33.97;18.23;;;5.50;99.90;;;;;;5032669;28;20036;-83
2022/03/02 00:04:10;;;;;;;33.53;18.92;;;5.60;99.90;;;;;;5032834;28;20043;-83
2022/03/02 00:06:36;;;;;;;37.58;19.38;;;5.60;99.90;;;;;;5049455;28;20102;-84
2022/03/02 00:09:03;;;;;;;34.83;19.40;;;5.80;99.90;;;;;;5032810;28;20045;-84
2022/03/02 00:11:29;;;;;;;35.95;19.55;;;5.60;99.90;;;;;;5033111;28;20296;-84
2022/03/02 00:13:55;;;;;;;33.63;18.52;;;5.60;99.90;;;;;;5032973;28;20037;-84
2022/03/02 00:16:22;;;;;;;38.05;20.15;;;5.60;99.90;;;;;;5049976;28;20041;-84
2022/03/02 00:18:49;;;;;;;34.00;19.25;;;5.60;99.90;;;;;;5032892;28;20044;-84
2022/03/02 00:21:14;;;;;;;33.80;18.92;;;5.60;99.90;;;;;;5033164;28;20040;-84
2022/03/02 00:23:40;;;;;;;32.27;19.13;;;5.60;99.90;;;;;;5033555;28;20041;-84
2022/03/02 00:26:06;;;;;;;35.47;19.17;;;6.60;99.90;;;;;;4998139;28;20033;-84
2022/03/02 00:28:32;;;;;;;35.97;20.60;;;5.50;99.90;;;;;;5016920;28;20208;-84
2022/03/02 00:30:58;;;;;;;36.53;19.65;;;6.40;99.90;;;;;;5049196;28;20037;-84
2022/03/02 00:33:23;;;;;;;34.75;19.08;;;5.40;99.90;;;;;;5047327;28;20073;-83
2022/03/02 00:35:49;;;;;;;38.87;20.17;;;5.40;99.90;;;;;;5016209;28;20411;-84
2022/03/02 00:38:15;;;;;;;38.20;19.80;;;5.40;99.90;;;;;;5032867;28;20291;-84
2022/03/02 00:40:42;;;;;;;36.13;19.67;;;5.40;99.90;;;;;;5049864;28;20295;-84
2022/03/02 00:43:09;;;;;;;34.80;19.60;;;5.40;99.90;;;;;;5047500;28;20860;-84
2022/03/02 00:45:35;;;;;;;40.22;20.77;;;5.30;99.90;;;;;;5049516;28;20102;-84
2022/03/02 00:48:03;;;;;;;37.33;20.23;;;5.30;99.90;;;;;;5049130;28;20063;-84
2022/03/02 00:50:29;;;;;;;37.40;21.67;;;5.30;99.90;;;;;;5032481;28;20033;-84
2022/03/02 00:52:55;;;;;;;39.17;19.70;;;5.30;99.90;;;;;;5032408;28;20041;-84
2022/03/02 00:55:21;;;;;;;37.25;20.27;;;5.30;99.90;;;;;;5017775;28;20036;-84
2022/03/02 00:57:48;;;;;;;35.55;20.90;;;5.30;99.90;;;;;;5036963;28;20060;-83
2022/03/02 01:00:14;;;;;;;38.63;21.42;;;5.50;99.90;;;;;;5036648;28;20037;-83
2022/03/02 01:02:40;;;;;;;;;;;5.20;99.90;;;;;;5037510;28;20029;-83
2022/03/02 01:05:07;;;;;;;35.25;20.08;;;6.50;99.90;;;;;;5053643;28;19916;-84
2022/03/02 01:07:33;;;;;;;;;;;6.00;99.90;;;;;;5020718;28;20514;-84
2022/03/02 01:09:59;;;;;;;40.25;21.85;;;5.20;99.90;;;;;;5050240;28;19920;-85
2022/03/02 01:12:25;;;;;;;43.05;19.95;;;5.30;99.90;;;;;;5036548;28;20369;-84
2022/03/02 01:14:51;;;;;;;40.67;19.98;;;6.60;99.90;;;;;;5052828;28;20044;-84
2022/03/02 01:17:18;;;;;;;41.83;21.05;;;6.50;99.90;;;;;;5020149;28;20036;-84
2022/03/02 01:19:43;;;;;;;39.45;21.58;;;5.80;99.90;;;;;;5053111;28;20028;-84
2022/03/02 01:22:09;;;;;;;39.03;20.38;;;6.30;99.90;;;;;;5052853;28;20091;-84
2022/03/02 01:24:35;;;;;;;39.95;22.35;;;5.20;99.90;;;;;;5036549;28;20499;-84
2022/03/02 01:27:01;;;;;;;37.70;21.70;;;6.40;99.90;;;;;;5052560;28;20131;-84
2022/03/02 01:29:30;;;;;;;41.78;22.20;;;5.90;99.90;;;;;;5019951;28;20094;-84
2022/03/02 01:31:56;;;;;;;42.53;22.75;;;5.20;99.90;;;;;;5035812;28;20041;-83
2022/03/02 01:42:53;;;;;;;41.30;23.33;;;5.10;99.90;;;;;;5030256;28;20476;-84
2022/03/02 01:45:21;;;;;;;44.10;24.52;;;5.10;99.90;;;;;;4994099;28;20050;-83
2022/03/02 01:48:24;;;;;;;40.97;22.40;;;5.10;99.90;;;;;;4980602;28;20531;-83
2022/03/02 01:50:50;;;;;;;41.38;22.67;;;5.10;99.90;;;;;;5011399;28;20044;-83
2022/03/02 01:53:15;;;;;;;42.15;23.58;;;5.10;99.90;;;;;;4980557;28;20492;-84
2022/03/02 01:55:41;;;;;;;40.63;22.77;;;5.10;99.90;;;;;;4996633;28;20484;-84
2022/03/02 01:58:07;;;;;;;42.80;22.73;;;5.10;99.90;;;;;;4980089;28;20625;-83
2022/03/02 02:00:32;;;;;;;41.33;22.52;;;5.10;99.90;;;;;;4997077;28;20045;-84
2022/03/02 02:02:58;;;;;;;42.83;23.23;;;5.10;99.90;;;;;;5012891;28;20050;-83
2022/03/02 02:05:24;;;;;;;43.75;22.80;;;5.00;99.90;;;;;;4980100;28;20517;-85
2022/03/02 02:07:50;;;;;;;44.20;23.92;;;5.40;99.90;;;;;;4979558;28;20041;-84
2022/03/02 02:10:16;;;;;;;42.15;22.35;;;5.00;99.90;;;;;;5012597;28;20482;-84
2022/03/02 02:12:41;;;;;;;40.95;23.13;;;5.10;99.90;;;;;;4996824;28;20034;-82
2022/03/02 02:15:09;;;;;;;40.80;22.20;;;5.00;99.90;;;;;;4979692;28;20038;-83
2022/03/02 02:17:35;;;;;;;42.40;22.38;;;5.80;99.90;;;;;;5011852;28;20037;-84
2022/03/02 02:20:02;;;;;;;39.95;22.10;;;6.00;99.90;;;;;;5011645;28;20053;-83
2022/03/02 02:22:27;;;;;;;;;;;5.80;99.90;;;;;;4995422;28;20034;-84
2022/03/02 02:24:53;;;;;;;44.95;23.30;;;6.00;99.90;;;;;;4995880;28;20019;-83
2022/03/02 02:27:19;;;;;;;44.70;23.53;;;4.90;99.90;;;;;;4995627;28;20026;-84
2022/03/02 02:29:47;;;;;;;42.75;22.73;;;5.60;99.90;;;;;;4996319;28;20285;-83
2022/03/02 02:32:12;;;;;;;46.70;24.13;;;4.90;99.90;;;;;;4995651;28;20034;-83
2022/03/02 02:34:40;;;;;;;46.83;24.30;;;4.90;99.90;;;;;;4979648;28;20104;-84
2022/03/02 02:37:07;;;;;;;46.15;24.98;;;5.10;99.90;;;;;;4996335;28;20045;-83
2022/03/02 02:39:35;;;;;;;43.78;23.67;;;4.80;99.90;;;;;;5012217;28;20429;-83
2022/03/02 02:42:06;;;;;;;51.20;26.27;;;4.80;99.90;;;;;;4979977;28;20161;-83
2022/03/02 02:44:34;;;;;;;46.00;24.60;;;4.70;99.90;;;;;;5021882;28;20064;-84
2022/03/02 02:47:00;;;;;;;44.10;23.60;;;5.80;99.90;;;;;;5051498;28;20055;-83
2022/03/02 02:49:26;;;;;;;49.00;25.88;;;5.20;99.90;;;;;;5048777;28;20041;-84
2022/03/02 02:51:55;;;;;;;48.35;26.55;;;4.60;99.90;;;;;;5035146;28;20523;-84
2022/03/02 02:54:21;;;;;;;51.60;27.58;;;4.60;99.90;;;;;;5018679;28;20079;-84
2022/03/02 02:56:47;;;;;;;49.25;26.48;;;4.50;99.90;;;;;;5035075;28;20069;-84
2022/03/02 02:59:13;;;;;;;50.40;26.97;;;5.80;99.90;;;;;;5034585;28;20035;-84
2022/03/02 03:01:38;;;;;;;52.35;27.27;;;5.60;99.90;;;;;;5034914;28;20559;-84
2022/03/02 03:04:06;;;;;;;50.20;27.15;;;4.50;99.90;;;;;;5051614;28;20032;-84
2022/03/02 03:06:33;;;;;;;50.45;26.90;;;4.30;99.90;;;;;;5018268;28;20095;-84
2022/03/02 03:08:59;;;;;;;52.80;26.88;;;4.20;99.90;;;;;;5034546;28;20045;-84
2022/03/02 03:11:24;;;;;;;53.40;27.85;;;4.20;99.90;;;;;;5050786;28;20045;-84
2022/03/02 03:13:50;;;;;;;49.38;26.50;;;4.60;99.90;;;;;;5018132;28;20117;-84
2022/03/02 03:16:16;;;;;;;53.13;28.33;;;4.10;99.90;;;;;;5017978;28;20078;-84
2022/03/02 03:18:41;;;;;;;55.47;27.55;;;4.40;99.90;;;;;;5033633;28;20040;-84
2022/03/02 03:21:07;;;;;;;52.47;26.85;;;4.00;99.90;;;;;;5018285;28;20037;-84
2022/03/02 03:23:33;;;;;;;54.67;27.98;;;4.70;99.90;;;;;;5017856;28;20071;-84
2022/03/02 03:25:59;;;;;;;52.50;28.00;;;5.00;99.90;;;;;;5034655;28;20033;-84
2022/03/02 03:28:24;;;;;;;52.00;27.63;;;3.90;99.90;;;;;;5033691;28;20037;-84
2022/03/02 03:30:50;;;;;;;53.33;26.73;;;4.20;99.90;;;;;;5051005;28;20396;-84
2022/03/02 03:33:16;;;;;;;56.90;27.90;;;3.80;99.90;;;;;;5017467;28;20295;-84
2022/03/02 03:35:42;;;;;;;53.53;27.52;;;3.80;99.90;;;;;;5034137;28;20287;-84
2022/03/02 03:38:07;;;;;;;53.25;28.10;;;3.70;99.90;;;;;;5017789;28;20136;-83
2022/03/02 03:40:33;;;;;;;57.30;28.52;;;3.70;99.90;;;;;;5017218;28;20040;-84
2022/03/02 03:42:59;;;;;;;51.03;27.63;;;4.20;99.90;;;;;;5050426;28;20439;-83
2022/03/02 03:45:25;;;;;;;54.72;27.80;;;3.60;99.90;;;;;;5017225;28;20139;-83
2022/03/02 03:47:52;;;;;;;51.80;27.17;;;4.80;99.90;;;;;;5050597;28;20120;-84
2022/03/02 03:50:17;;;;;;;53.60;28.45;;;3.60;99.90;;;;;;5048286;28;20036;-83
2022/03/02 03:52:43;;;;;;;57.33;28.88;;;4.50;99.90;;;;;;5017425;28;20389;-84
2022/03/02 03:55:11;;;;;;;53.70;27.92;;;4.00;99.90;;;;;;5017772;28;20036;-84
2022/03/02 03:57:37;;;;;;;54.80;27.75;;;3.50;99.90;;;;;;5016752;28;20043;-83
2022/03/02 04:00:09;;;;;;;50.92;26.73;;;3.50;99.90;;;;;;5050446;28;20123;-83
2022/03/02 04:02:35;;;;;;;56.35;28.73;;;3.40;99.90;;;;;;5033290;28;20044;-83
2022/03/02 04:05:01;;;;;;;55.72;28.35;;;3.40;99.90;;;;;;5033725;28;20048;-83
2022/03/02 04:07:26;;;;;;;54.22;28.52;;;3.40;99.90;;;;;;5016568;28;20029;-83
2022/03/02 04:09:52;;;;;;;57.00;28.67;;;3.50;99.90;;;;;;5050008;28;20128;-83
2022/03/02 04:12:18;;;;;;;57.03;29.58;;;3.30;99.90;;;;;;5032750;28;20044;-83
2022/03/02 04:14:44;;;;;;;55.53;27.90;;;3.30;99.90;;;;;;5033455;28;20452;-83
2022/03/02 04:17:11;;;;;;;50.38;26.65;;;3.20;99.90;;;;;;5017078;28;20041;-83
2022/03/02 04:19:37;;;;;;;56.63;28.65;;;3.60;99.90;;;;;;5016485;28;20091;-83
2022/03/02 04:22:04;;;;;;;51.80;27.80;;;3.70;99.90;;;;;;5050009;28;20037;-83
2022/03/02 04:24:30;;;;;;;54.85;29.40;;;3.20;99.90;;;;;;5049668;28;20510;-84
2022/03/02 04:26:56;;;;;;;52.55;26.40;;;3.60;99.90;;;;;;5033329;28;20040;-83
2022/03/02 04:29:21;;;;;;;53.67;29.73;;;3.00;99.90;;;;;;5049307;28;20086;-83
2022/03/02 04:31:47;;;;;;;54.60;29.02;;;3.20;99.90;;;;;;5016737;28;20032;-83
2022/03/02 04:34:13;;;;;;;59.90;30.05;;;3.00;99.90;;;;;;5033112;28;20088;-83
2022/03/02 04:36:39;;;;;;;54.10;30.40;;;3.00;99.90;;;;;;5049448;28;20044;-83
2022/03/02 04:39:04;;;;;;;59.03;29.98;;;3.00;99.90;;;;;;5033056;28;20041;-83
2022/03/02 04:41:30;;;;;;;60.20;29.98;;;3.00;99.90;;;;;;5016156;28;20476;-83
2022/03/02 04:43:56;;;;;;;58.17;28.93;;;3.00;99.90;;;;;;5049008;28;20053;-82
2022/03/02 04:46:21;;;;;;;55.30;28.48;;;2.90;99.90;;;;;;5032402;28;20045;-82
2022/03/02 04:48:47;;;;;;;55.92;28.40;;;2.80;99.90;;;;;;5016809;28;20496;-84
2022/03/02 04:51:13;;;;;;;58.35;29.55;;;2.80;99.90;;;;;;5049433;28;20112;-83
2022/03/02 04:53:39;;;;;;;55.80;29.42;;;2.80;99.90;;;;;;5032804;28;20043;-84
2022/03/02 04:56:04;;;;;;;56.60;29.80;;;2.80;99.90;;;;;;5016604;28;20096;-84
2022/03/02 04:58:30;;;;;;;55.88;31.15;;;2.80;99.90;;;;;;5016238;28;20032;-84
2022/03/02 05:00:56;;;;;;;55.40;30.20;;;2.70;99.90;;;;;;5032809;28;20480;-84
2022/03/02 05:03:22;;;;;;;56.58;29.83;;;2.70;99.90;;;;;;5033009;28;20278;-84
2022/03/02 05:05:47;;;;;;;60.15;29.23;;;4.10;99.90;;;;;;5033410;28;20124;-84
2022/03/02 05:08:13;;;;;;;57.57;28.97;;;4.00;99.90;;;;;;5032945;28;20076;-84
2022/03/02 05:10:39;;;;;;;56.20;29.35;;;2.80;99.90;;;;;;4999399;28;20351;-83
2022/03/02 05:13:05;;;;;;;55.13;29.45;;;2.60;99.90;;;;;;5016370;28;20041;-82
2022/03/02 05:15:31;;;;;;;55.40;28.35;;;3.40;99.90;;;;;;5032543;28;20119;-81
2022/03/02 05:17:58;;;;;;;54.03;28.00;;;2.60;99.90;;;;;;5049463;28;20112;-82
2022/03/02 05:20:24;;;;;;;55.58;28.45;;;3.00;99.90;;;;;;5046507;28;20048;-82
2022/03/02 05:22:50;;;;;;;56.88;28.52;;;4.00;99.90;;;;;;5049293;28;20484;-81
2022/03/02 05:25:16;;;;;;;53.33;28.08;;;2.60;99.90;;;;;;5016887;28;20039;-81
2022/03/02 05:27:43;;;;;;;55.75;28.92;;;2.50;99.90;;;;;;5033123;28;20107;-82
2022/03/02 05:30:10;;;;;;;;;;;3.60;99.90;;;;;;5031499;28;20112;-82
2022/03/02 05:32:37;;;;;;;57.28;30.90;;;2.50;99.90;;;;;;5039843;28;19917;-82
2022/03/02 05:35:03;;;;;;;59.63;31.27;;;2.50;99.90;;;;;;5049443;28;20467;-82
2022/03/02 05:37:29;;;;;;;57.90;30.75;;;2.50;99.90;;;;;;5016535;28;20468;-82
2022/03/02 05:39:55;;;;;;;56.50;29.60;;;2.40;99.90;;;;;;5031896;28;20048;-82
2022/03/02 05:42:20;;;;;;;56.10;29.83;;;2.40;99.90;;;;;;5049879;28;20472;-84
2022/03/02 05:44:46;;;;;;;55.88;30.58;;;2.40;99.90;;;;;;5035468;28;20530;-83
2022/03/02 05:47:12;;;;;;;53.67;29.92;;;2.40;99.90;;;;;;5036546;28;20044;-83
2022/03/02 05:49:38;;;;;;;57.75;30.27;;;2.40;99.90;;;;;;5019704;28;20033;-85
2022/03/02 05:52:05;;;;;;;55.53;28.80;;;2.40;99.90;;;;;;5003848;28;20064;-83
2022/03/02 05:54:31;;;;;;;56.33;29.77;;;2.30;99.90;;;;;;5036544;28;20036;-82
2022/03/02 05:56:56;;;;;;;56.63;29.35;;;2.30;99.90;;;;;;5036243;28;20060;-82
2022/03/02 05:59:22;;;;;;;57.47;28.90;;;2.80;99.90;;;;;;5020124;28;20573;-82
2022/03/02 06:01:49;;;;;;;61.67;30.23;;;2.30;99.90;;;;;;5052502;28;20068;-82
2022/03/02 06:04:14;;;;;;;62.90;31.20;;;2.30;99.90;;;;;;5052551;28;20090;-82
2022/03/02 06:06:41;;;;;;;57.17;31.50;;;2.30;99.90;;;;;;5019322;28;20128;-81
2022/03/02 06:09:07;;;;;;;;;;;2.30;99.90;;;;;;5053415;28;20488;-81
2022/03/02 06:11:34;;;;;;;58.00;31.30;;;2.30;99.90;;;;;;5052223;28;19924;-82
2022/03/02 06:13:59;;;;;;;;;;;2.20;99.90;;;;;;5053080;28;20063;-82
2022/03/02 06:16:25;;;;;;;58.38;31.10;;;2.20;99.90;;;;;;5036023;28;20396;-82
2022/03/02 06:18:51;;;;;;;61.05;30.52;;;2.20;99.90;;;;;;5036087;28;20068;-82
2022/03/02 06:21:25;;;;;;;61.67;32.42;;;2.20;99.90;;;;;;5036103;28;20041;-83
2022/03/02 06:23:52;;;;;;;62.40;30.58;;;2.30;99.90;;;;;;5051119;28;20373;-83
2022/03/02 06:26:18;;;;;;;60.85;31.50;;;2.20;99.90;;;;;;5035953;28;20029;-82
2022/03/02 06:28:45;;;;;;;63.03;31.98;;;2.20;99.90;;;;;;5051902;28;20053;-82
2022/03/02 06:31:13;;;;;;;60.20;30.33;;;2.70;99.90;;;;;;5052316;28;20063;-83
2022/03/02 06:33:39;;;;;;;55.08;30.25;;;2.20;99.90;;;;;;5052040;28;20076;-82
2022/03/02 06:36:05;;;;;;;59.00;30.38;;;2.20;99.90;;;;;;5035543;28;20033;-82
2022/03/02 06:38:31;;;;;;;60.22;30.63;;;2.20;99.90;;;;;;5052286;28;20468;-82
2022/03/02 06:41:02;;;;;;;58.03;30.58;;;2.80;99.90;;;;;;5019623;28;20061;-82
2022/03/02 06:43:42;;;;;;;53.65;29.38;;;2.20;99.90;;;;;;5051572;28;20125;-82
2022/03/02 06:46:16;;;;;;;55.70;28.55;;;2.50;99.90;;;;;;5049469;28;20045;-83
2022/03/02 06:48:57;;;;;;;53.10;28.90;;;2.20;99.90;;;;;;5051443;28;20040;-83
2022/03/02 06:51:24;;;;;;;58.50;29.65;;;2.40;99.90;;;;;;5051825;28;20125;-83
2022/03/02 06:53:51;;;;;;;56.00;29.88;;;2.30;99.90;;;;;;5034625;28;20040;-83
2022/03/02 06:56:21;;;;;;;60.35;30.13;;;2.30;99.90;;;;;;5051772;28;20032;-81
2022/03/02 06:58:50;;;;;;;56.10;28.70;;;3.00;99.90;;;;;;5051468;28;20079;-81
2022/03/02 07:01:28;;;;;;;53.20;27.90;;;2.40;99.90;;;;;;5051764;28;20124;-81
2022/03/02 07:03:59;;;;;;;51.95;28.17;;;2.40;99.90;;;;;;5035197;28;20507;-81
2022/03/02 07:06:27;;;;;;;57.42;29.08;;;3.50;99.90;;;;;;5017212;28;20041;-82
2022/03/02 07:08:54;;;;;;;55.53;28.55;;;2.60;99.90;;;;;;5051238;28;20064;-82
2022/03/02 07:11:21;;;;;;;52.80;27.42;;;2.60;99.90;;;;;;5032718;28;20056;-82
2022/03/02 07:13:47;;;;;;;;;;;3.90;99.90;;;;;;5034884;28;20124;-82
2022/03/02 07:16:14;;;;;;;56.22;28.42;;;2.80;99.90;;;;;;5051411;28;19964;-82
2022/03/02 07:18:41;;;;;;;53.00;28.52;;;2.90;99.90;;;;;;5034376;28;20071;-82
2022/03/02 07:21:13;;;;;;;50.83;27.30;;;3.00;99.90;;;;;;5034625;28;20068;-82
2022/03/02 07:23:55;;;;;;;52.47;26.73;;;3.10;99.90;;;;;;5050795;28;20041;-82
2022/03/02 07:26:22;;;;;;;51.20;26.70;;;3.10;99.90;;;;;;5049317;28;20049;-82
2022/03/02 07:28:49;;;;;;;50.60;25.90;;;3.30;99.90;;;;;;5017641;28;20037;-83
2022/03/02 07:31:15;;;;;;;48.80;26.13;;;3.40;99.90;;;;;;5051011;28;20052;-82
2022/03/02 07:33:42;;;;;;;;;;;3.40;99.90;;;;;;5048852;28;20112;-84
2022/03/02 07:36:11;;;;;;;49.10;25.83;;;3.60;99.90;;;;;;5051252;28;19982;-81
2022/03/02 07:38:38;;;;;;;56.53;27.00;;;3.80;99.90;;;;;;5050538;28;20094;-80
2022/03/02 07:41:09;;;;;;;49.13;26.10;;;4.60;99.90;;;;;;5034514;28;20102;-81
2022/03/02 07:43:39;;;;;;;51.30;25.38;;;4.00;99.90;;;;;;5050095;28;20052;-81
2022/03/02 07:46:06;;;;;;;49.30;26.50;;;4.00;99.90;;;;;;5050401;28;20041;-82
2022/03/02 07:48:33;;;;;;;47.75;25.60;;;4.20;99.90;;;;;;5017424;28;20090;-80
2022/03/02 07:51:01;;;;;;;44.72;24.48;;;4.20;99.90;;;;;;5034207;28;20041;-81
2022/03/02 07:53:37;;;;;;;46.65;24.77;;;4.30;99.90;;;;;;5050851;28;20112;-81
2022/03/02 07:56:04;;;;;;;46.90;24.70;;;4.50;99.90;;;;;;5050570;28;20083;-81
2022/03/02 07:58:30;;;;;;;43.30;23.52;;;4.50;99.90;;;;;;5050710;28;20112;-81
2022/03/02 08:00:58;;;;;;;47.15;24.98;;;4.60;99.90;;;;;;5033708;28;20040;-81
2022/03/02 08:03:26;;;;;;;45.85;23.83;;;4.80;99.90;;;;;;5033841;28;20108;-82
2022/03/02 08:05:54;;;;;;;42.85;22.77;;;5.00;99.90;;;;;;5032984;28;20064;-82
2022/03/02 08:08:20;;;;;;;45.72;25.00;;;4.90;99.90;;;;;;5032553;28;20073;-82
2022/03/02 08:10:46;;;;;;;44.78;24.52;;;6.20;99.90;;;;;;5050050;28;20079;-81
2022/03/02 08:13:13;;;;;;;39.95;23.85;;;5.90;99.90;;;;;;5050335;28;20033;-82
2022/03/02 08:15:40;;;;;;;39.40;22.48;;;6.60;99.90;;;;;;5050298;28;20488;-82
2022/03/02 08:18:06;;;;;;;43.17;23.50;;;6.90;99.90;;;;;;5050486;28;20520;-82
2022/03/02 08:20:34;;;;;;;37.85;22.40;;;7.10;99.90;;;;;;5050221;28;20076;-82
2022/03/02 08:23:04;;;;;;;42.53;24.52;;;7.50;99.90;;;;;;5033894;28;20049;-82
2022/03/02 08:25:32;;;;;;;40.20;22.88;;;8.00;99.90;;;;;;5050595;28;20045;-83
2022/03/02 08:28:01;;;;;;;37.10;21.85;;;8.00;99.90;;;;;;5050247;28;20408;-83
2022/03/02 08:30:30;;;;;;;35.50;21.58;;;8.30;99.90;;;;;;5032000;28;20492;-83
2022/03/02 08:32:57;;;;;;;38.03;22.90;;;8.50;99.90;;;;;;5050043;28;20045;-83
2022/03/02 08:35:24;;;;;;;37.75;21.80;;;8.60;99.90;;;;;;5033332;28;20041;-83
2022/03/02 08:37:49;;;;;;;36.33;22.40;;;8.60;99.90;;;;;;5033380;28;20090;-83
2022/03/02 08:40:15;;;;;;;35.03;21.58;;;8.90;99.90;;;;;;5049655;28;20116;-83
2022/03/02 08:42:41;;;;;;;34.15;22.13;;;8.80;99.90;;;;;;5033076;28;20103;-83
2022/03/02 08:45:08;;;;;;;36.80;23.25;;;9.20;99.90;;;;;;5000596;28;20115;-83
2022/03/02 08:47:34;;;;;;;35.60;21.70;;;9.30;99.90;;;;;;5033454;28;20033;-84
2022/03/02 08:50:00;;;;;;;36.00;22.52;;;9.30;99.90;;;;;;5032938;28;20052;-82
2022/03/02 08:52:28;;;;;;;38.00;21.73;;;9.30;99.90;;;;;;5049722;28;20084;-82
2022/03/02 08:54:56;;;;;;;34.38;22.48;;;9.30;99.90;;;;;;5049558;28;20074;-84
2022/03/02 08:57:23;;;;;;;34.85;20.83;;;9.70;99.90;;;;;;5034212;28;20044;-87
2022/03/02 08:59:53;;;;;;;32.45;20.40;;;9.70;99.90;;;;;;5034627;28;20112;-86
2022/03/02 09:02:22;;;;;;;39.25;21.77;;;10.20;99.90;;;;;;5034976;28;20068;-86
2022/03/02 09:04:49;;;;;;;35.03;21.42;;;10.10;99.90;;;;;;5019142;28;20492;-86
2022/03/02 09:07:17;;;;;;;31.90;20.10;;;10.10;99.90;;;;;;5052048;28;20067;-86
2022/03/02 09:09:44;;;;;;;36.15;21.20;;;10.30;99.90;;;;;;5034972;28;20155;-86
2022/03/02 09:12:09;;;;;;;;;;;10.10;99.90;;;;;;5002749;28;20041;-85
2022/03/02 09:14:37;;;;;;;30.35;20.60;;;10.10;99.90;;;;;;5051888;28;19917;-86
2022/03/02 09:17:05;;;;;;;34.20;20.45;;;10.80;99.90;;;;;;5019071;28;20068;-86
2022/03/02 09:19:32;;;;;;;31.92;20.52;;;11.10;99.90;;;;;;5038823;28;20072;-86
2022/03/02 09:21:58;;;;;;;32.33;20.90;;;11.60;99.90;;;;;;5022814;28;20045;-86
2022/03/02 09:24:28;;;;;;;30.48;19.38;;;11.60;99.90;;;;;;5022595;28;20128;-86
2022/03/02 09:26:56;;;;;;;30.77;20.08;;;11.40;99.90;;;;;;5055476;28;20045;-86
2022/03/02 09:29:26;;;;;;;30.92;20.10;;;11.40;99.90;;;;;;5022874;28;20488;-86
2022/03/02 09:31:53;;;;;;;33.72;20.15;;;11.20;99.90;;;;;;5056556;28;20048;-86
2022/03/02 09:34:24;;;;;;;34.00;20.05;;;12.00;99.90;;;;;;5022852;28;20506;-86
2022/03/02 09:36:51;;;;;;;32.28;20.30;;;11.80;99.90;;;;;;5039189;28;20047;-86
2022/03/02 09:39:17;;;;;;;31.17;19.50;;;11.50;99.90;;;;;;5022182;28;20403;-85
2022/03/02 09:41:51;;;;;;;34.22;20.15;;;11.30;99.90;;;;;;5055137;28;20045;-85
2022/03/02 09:44:20;;;;;;;30.17;19.30;;;12.10;99.90;;;;;;5038635;28;20605;-86
2022/03/02 09:46:56;;;;;;;30.25;19.25;;;12.30;99.90;;;;;;5038592;28;20052;-86
2022/03/02 09:49:24;;;;;;;31.97;19.07;;;12.40;99.90;;;;;;5038589;28;20056;-86
2022/03/02 09:52:03;;;;;;;29.42;19.50;;;12.50;99.90;;;;;;5022046;28;20471;-86
2022/03/02 09:54:33;;;;;;;31.02;17.83;;;12.80;99.90;;;;;;5055390;28;20073;-86
2022/03/02 09:57:03;;;;;;;29.90;18.70;;;12.60;99.90;;;;;;5022554;28;20048;-86
2022/03/02 09:59:38;;;;;;;31.73;19.05;;;12.70;99.90;;;;;;5055328;28;20045;-87
2022/03/02 10:02:07;;;;;;;28.95;19.23;;;13.00;99.90;;;;;;5039504;28;20100;-86
2022/03/02 10:04:35;;;;;;;30.60;19.17;;;13.80;99.90;;;;;;5055369;28;20074;-86
2022/03/02 10:09:51;;;;;;;29.48;18.48;;;13.50;99.90;;;;;;5041555;28;20066;-86
2022/03/02 10:12:21;;;;;;;29.02;18.80;;;13.50;99.90;;;;;;5022135;28;20508;-86
2022/03/02 10:14:49;;;;;;;26.20;18.20;;;13.70;99.90;;;;;;5054789;28;20094;-86
2022/03/02 10:17:21;;;;;;;26.48;18.10;;;13.80;99.90;;;;;;5038347;28;20033;-86
2022/03/02 10:19:53;;;;;;;27.58;18.05;;;14.20;99.80;;;;;;5021719;28;20080;-85
2022/03/02 10:22:25;;;;;;;26.63;17.52;;;13.90;99.90;;;;;;5037947;28;20041;-85
2022/03/02 10:25:02;;;;;;;29.55;16.63;;;13.80;99.90;;;;;;5054635;28;20492;-85
2022/03/02 10:27:46;;;;;;;29.38;17.80;;;13.90;99.90;;;;;;5037624;28;20045;-86
2022/03/02 10:30:12;;;;;;;28.48;17.70;;;14.40;98.90;;;;;;5054247;28;20045;-86
2022/03/02 10:32:41;;;;;;;28.55;18.80;;;14.40;99.10;;;;;;5021197;28;20451;-85
2022/03/02 10:35:13;;;;;;;26.52;17.13;;;14.30;98.30;;;;;;5037690;28;20041;-85
2022/03/02 10:37:53;;;;;;;24.83;16.48;;;14.70;97.90;;;;;;5038132;28;20575;-85
2022/03/02 10:40:24;;;;;;;25.67;16.88;;;15.00;97.00;;;;;;5054383;28;20084;-85
2022/03/02 10:42:57;;;;;;;28.90;16.92;;;14.90;97.50;;;;;;5038082;28;20037;-85
2022/03/02 10:45:26;;;;;;;26.63;16.90;;;15.30;94.40;;;;;;5054087;28;20049;-85
2022/03/02 10:48:11;;;;;;;28.55;17.73;;;14.90;96.20;;;;;;5037384;28;20041;-85
2022/03/02 10:50:39;;;;;;;25.83;16.58;;;15.10;94.40;;;;;;5036937;28;20069;-85
2022/03/02 10:53:16;;;;;;;26.75;16.60;;;15.20;96.70;;;;;;5037266;28;20091;-85
2022/03/02 10:55:47;;;;;;;23.85;16.08;;;14.80;94.10;;;;;;5037464;28;20044;-85
2022/03/02 10:58:15;;;;;;;24.30;16.77;;;14.90;93.10;;;;;;5037253;28;20043;-85
2022/03/02 11:00:42;;;;;;;24.65;15.70;;;14.80;94.40;;;;;;5037100;28;20044;-86
2022/03/02 11:03:08;;;;;;;24.70;16.20;;;14.80;95.20;;;;;;5037052;28;20079;-85
2022/03/02 11:05:35;;;;;;;24.80;15.45;;;15.10;95.10;;;;;;5036910;28;20044;-85
2022/03/02 11:08:02;;;;;;;23.75;15.23;;;14.90;94.30;;;;;;5020516;28;20041;-84
2022/03/02 11:10:33;;;;;;;24.30;15.63;;;15.00;93.70;;;;;;5020514;28;20155;-85
2022/03/02 11:13:02;;;;;;;21.10;14.38;;;15.10;92.50;;;;;;5053549;28;20037;-85
2022/03/02 11:16:01;;;;;;;25.23;15.82;;;15.00;93.60;;;;;;5020802;28;20036;-85
2022/03/02 11:18:38;;;;;;;24.10;16.33;;;14.90;94.10;;;;;;5020320;28;20037;-85
2022/03/02 11:21:05;;;;;;;21.00;15.25;;;15.30;93.30;;;;;;5036676;28;20084;-84
2022/03/02 11:23:45;;;;;;;22.58;15.63;;;15.50;94.60;;;;;;5036522;28;20186;-85
2022/03/02 11:26:16;;;;;;;20.58;15.35;;;15.10;92.20;;;;;;5052967;28;20128;-85
2022/03/02 11:28:48;;;;;;;26.52;17.02;;;15.60;93.00;;;;;;5051866;28;20040;-82
2022/03/02 11:31:24;;;;;;;24.30;16.40;;;15.90;91.50;;;;;;5030776;28;20504;-83
2022/03/02 11:33:51;;;;;;;22.92;15.73;;;16.10;91.10;;;;;;5034941;28;20037;-82
2022/03/02 11:36:19;;;;;;;22.65;15.63;;;15.90;91.90;;;;;;5051926;28;20116;-88
2022/03/02 11:38:49;;;;;;;23.77;15.40;;;15.90;92.30;;;;;;5055393;28;20791;-93
2022/03/02 11:41:15;;;;;;;23.00;15.48;;;16.20;92.50;;;;;;5036511;28;20120;-90
2022/03/02 11:43:41;;;;;;;21.77;15.18;;;16.70;91.00;;;;;;5036827;28;20076;-92
2022/03/02 11:46:10;;;;;;;24.17;15.43;;;16.00;90.60;;;;;;5037172;28;20666;-93
2022/03/02 11:48:41;;;;;;;22.55;15.45;;;16.30;92.20;;;;;;5051877;28;20037;-90
2022/03/02 11:51:14;;;;;;;22.75;15.98;;;15.90;91.40;;;;;;5051810;28;20134;-89
2022/03/02 11:53:46;;;;;;;20.73;14.95;;;16.70;90.10;;;;;;5035537;28;20029;-86
2022/03/02 11:56:18;;;;;;;24.92;15.25;;;16.80;90.00;;;;;;5035274;28;20550;-90
2022/03/02 11:59:06;;;;;;;22.30;15.10;;;16.80;86.90;;;;;;5053247;28;20404;-93
2022/03/02 12:01:53;;;;;;;21.45;14.98;;;17.00;89.70;;;;;;5021402;28;20040;-91
2022/03/02 12:04:19;;;;;;;22.15;15.65;;;17.10;87.20;;;;;;5035646;28;20040;-88
2022/03/02 12:06:46;;;;;;;;;;;16.60;86.90;;;;;;5019554;28;20108;-93
2022/03/02 12:09:28;;;;;;;23.10;15.75;;;16.90;88.00;;;;;;5035106;28;20020;-84
2022/03/02 12:12:20;;;;;;;24.00;15.57;;;16.90;89.90;;;;;;5049341;28;20048;-86
2022/03/02 12:14:48;;;;;;;22.23;15.50;;;17.10;90.20;;;;;;5020269;28;20036;-90
2022/03/02 12:17:21;;;;;;;21.05;14.88;;;17.30;88.00;;;;;;5036412;28;20090;-91
2022/03/02 12:19:53;;;;;;;21.77;15.10;;;17.40;86.10;;;;;;5036718;28;20122;-92
2022/03/02 12:22:20;;;;;;;19.98;14.52;;;18.10;81.30;;;;;;5037994;28;20067;-93
2022/03/02 12:24:47;;;;;;;20.27;14.80;;;17.90;81.60;;;;;;5036850;28;20090;-93
2022/03/02 12:27:13;;;;;;;23.63;15.40;;;17.90;84.30;;;;;;5021207;28;20496;-95
2022/03/02 12:29:41;;;;;;;21.15;14.85;;;18.40;82.20;;;;;;5024438;28;20044;-95
2022/03/02 12:32:15;;;;;;;20.80;14.40;;;18.20;81.20;;;;;;5063841;28;20041;-96
2022/03/02 12:34:50;;;;;;;20.67;14.30;;;18.30;80.20;;;;;;5044115;28;20064;-96
2022/03/02 12:37:18;;;;;;;21.20;14.02;;;17.40;77.10;;;;;;5044384;28;20096;-96
2022/03/02 12:39:44;;;;;;;26.02;15.82;;;18.40;80.60;;;;;;5039264;28;20075;-96
2022/03/02 12:42:11;;;;;;;21.35;15.02;;;17.40;82.50;;;;;;5041025;28;20029;-94
2022/03/02 12:44:58;;;;;;;21.38;14.88;;;17.20;83.00;;;;;;5036213;28;20056;-90
2022/03/02 12:47:27;;;;;;;23.52;15.13;;;17.70;82.40;;;;;;5021753;28;20408;-91
2022/03/02 12:49:54;;;;;;;22.33;15.80;;;17.80;78.50;;;;;;5035897;28;20045;-92
2022/03/02 12:52:22;;;;;;;21.30;14.20;;;17.20;81.50;;;;;;5052782;28;20048;-89
2022/03/02 12:54:49;;;;;;;21.70;15.60;;;17.20;84.80;;;;;;5020190;28;20037;-91